Time;durP1;ratioP1;P1;durP2;ratioP2;P2;SDS_P1;SDS_P2;PMS_P1;PMS_P2;Temp;Humidity;BMP_temperature;BMP_pressure;BME280_temperature;BME280_humidity;BME280_pressure;Samples;Min_cycle;Max_cycle;Signal;HPM_P1;HPM_P2
2021/01/23 00:00:08;;;;;;;9.23;4.47;;;;;7.50;99411.00;;;;5028916;28;20205;-78
2021/01/23 00:02:36;;;;;;;7.80;3.92;;;;;7.50;99408.00;;;;5029310;28;20673;-77
2021/01/23 00:05:03;;;;;;;7.85;3.60;;;;;7.50;99410.00;;;;5029804;28;20200;-78
2021/01/23 00:07:30;;;;;;;6.50;3.50;;;;;7.50;99402.00;;;;5028615;28;20674;-78
2021/01/23 00:09:57;;;;;;;6.63;4.00;;;;;7.50;99403.00;;;;5028604;28;20208;-78
2021/01/23 00:12:23;;;;;;;6.68;4.20;;;;;7.50;99396.00;;;;5029767;28;20211;-77
2021/01/23 00:14:50;;;;;;;6.53;3.45;;;;;7.50;99396.00;;;;5028469;28;20278;-78
2021/01/23 00:17:17;;;;;;;6.72;4.25;;;;;7.50;99391.00;;;;5027940;28;20621;-78
2021/01/23 00:19:44;;;;;;;5.72;3.92;;;;;7.50;99389.00;;;;5028041;28;20197;-78
2021/01/23 00:22:11;;;;;;;6.88;3.70;;;;;7.50;99390.00;;;;5028580;28;20200;-78
2021/01/23 00:24:38;;;;;;;5.35;3.85;;;;;7.50;99386.00;;;;5028633;28;20207;-78
2021/01/23 00:27:05;;;;;;;7.18;3.55;;;;;7.50;99390.00;;;;5027748;28;20577;-78
2021/01/23 00:29:32;;;;;;;5.10;3.38;;;;;7.50;99389.00;;;;5027811;28;20690;-78
2021/01/23 00:31:58;;;;;;;8.13;3.33;;;;;7.50;99379.00;;;;5028017;28;20204;-78
2021/01/23 00:34:25;;;;;;;6.20;3.88;;;;;7.50;99385.00;;;;5027959;28;20228;-78
2021/01/23 00:36:53;;;;;;;7.55;3.78;;;;;7.50;99382.00;;;;5027572;28;20220;-78
2021/01/23 00:39:19;;;;;;;5.00;3.45;;;;;7.50;99387.00;;;;5027682;28;20200;-78
2021/01/23 00:41:46;;;;;;;7.25;3.63;;;;;7.50;99377.00;;;;5027503;28;20682;-78
2021/01/23 00:44:13;;;;;;;5.82;3.53;;;;;7.50;99375.00;;;;5028143;28;20200;-78
2021/01/23 00:46:40;;;;;;;5.97;3.75;;;;;7.50;99367.00;;;;5027773;28;21054;-78
2021/01/23 00:49:07;;;;;;;6.55;3.97;;;;;7.50;99374.00;;;;5028634;28;20681;-78
2021/01/23 00:51:33;;;;;;;5.60;3.65;;;;;7.50;99363.00;;;;5028695;28;20207;-78
2021/01/23 00:54:01;;;;;;;6.22;3.63;;;;;7.50;99370.00;;;;5027049;28;20212;-78
2021/01/23 00:56:28;;;;;;;6.25;3.88;;;;;7.50;99362.00;;;;5028031;28;20231;-78
2021/01/23 00:58:54;;;;;;;8.15;4.05;;;;;7.50;99362.00;;;;5027290;28;20207;-78
2021/01/23 01:01:21;;;;;;;5.45;3.35;;;;;7.50;99371.00;;;;5028955;28;20206;-78
2021/01/23 01:03:48;;;;;;;5.00;3.55;;;;;7.50;99369.00;;;;5027777;28;20200;-78
2021/01/23 01:06:14;;;;;;;4.97;3.67;;;;;7.50;99365.00;;;;5028750;28;20200;-78
2021/01/23 01:08:41;;;;;;;5.07;3.40;;;;;7.50;99358.00;;;;5028115;28;20198;-78
2021/01/23 01:11:09;;;;;;;4.82;3.33;;;;;7.50;99358.00;;;;5027951;28;20212;-77
2021/01/23 01:13:36;;;;;;;7.15;3.63;;;;;7.60;99354.00;;;;5028184;28;20212;-78
2021/01/23 01:16:02;;;;;;;7.38;3.50;;;;;7.60;99349.00;;;;5027796;28;20717;-78
2021/01/23 01:18:29;;;;;;;5.70;3.60;;;;;7.50;99353.00;;;;5028338;28;21023;-78
2021/01/23 01:20:56;;;;;;;5.28;3.80;;;;;7.60;99348.00;;;;5028485;28;21004;-78
2021/01/23 01:23:22;;;;;;;7.28;4.13;;;;;7.50;99350.00;;;;5028039;28;20205;-78
2021/01/23 01:25:49;;;;;;;4.82;3.58;;;;;7.50;99361.00;;;;5027584;28;20189;-78
2021/01/23 01:28:17;;;;;;;10.15;4.15;;;;;7.50;99352.00;;;;5028237;28;20265;-78
2021/01/23 01:30:44;;;;;;;6.43;4.15;;;;;7.50;99360.00;;;;5027411;28;20334;-78
2021/01/23 01:33:10;;;;;;;4.65;3.47;;;;;7.50;99357.00;;;;5027399;28;20599;-77
2021/01/23 01:35:37;;;;;;;5.20;4.07;;;;;7.60;99354.00;;;;5027261;28;20220;-78
2021/01/23 01:38:04;;;;;;;5.57;3.88;;;;;7.60;99356.00;;;;5028212;28;20204;-79
2021/01/23 01:40:31;;;;;;;5.55;4.03;;;;;7.60;99351.00;;;;5027782;28;20207;-78
2021/01/23 01:42:58;;;;;;;7.30;3.70;;;;;7.60;99346.00;;;;5027136;28;20207;-78
2021/01/23 01:45:25;;;;;;;6.22;4.18;;;;;7.60;99349.00;;;;5026704;28;20228;-78
2021/01/23 01:47:52;;;;;;;8.20;3.85;;;;;7.60;99345.00;;;;5027641;28;20211;-78
2021/01/23 01:50:20;;;;;;;5.70;3.47;;;;;7.70;99338.00;;;;5029293;28;20733;-78
2021/01/23 01:52:50;;;;;;;6.55;3.72;;;;;7.70;99337.00;;;;5031669;28;20250;-79
2021/01/23 01:55:17;;;;;;;6.70;3.30;;;;;7.70;99331.00;;;;5031027;28;20689;-78
2021/01/23 01:57:44;;;;;;;5.95;3.97;;;;;7.80;99339.00;;;;5031232;28;20690;-78
2021/01/23 02:00:12;;;;;;;5.97;4.32;;;;;7.80;99334.00;;;;5031440;28;20204;-78
2021/01/23 02:03:11;;;;;;;6.65;3.67;;;;;7.70;99330.00;;;;5031605;28;22323;-78
2021/01/23 02:05:43;;;;;;;6.68;3.60;;;;;7.90;99336.00;;;;5030368;28;20830;-78
2021/01/23 02:08:24;;;;;;;6.78;3.65;;;;;7.90;99338.00;;;;5030718;28;20287;-78
2021/01/23 02:11:03;;;;;;;8.68;4.35;;;;;7.90;99339.00;;;;5030631;28;20200;-78
2021/01/23 02:13:31;;;;;;;5.25;3.45;;;;;8.00;99337.00;;;;5029107;28;20208;-78
2021/01/23 02:16:04;;;;;;;7.55;4.28;;;;;8.00;99339.00;;;;5030240;28;20697;-78
2021/01/23 02:18:37;;;;;;;5.95;3.55;;;;;8.10;99335.00;;;;5018183;28;20731;-78
2021/01/23 02:21:37;;;;;;;7.38;3.83;;;;;8.10;99334.00;;;;5030724;28;20223;-78
2021/01/23 02:24:05;;;;;;;5.15;3.70;;;;;8.20;99328.00;;;;5021019;28;20708;-78
2021/01/23 02:26:47;;;;;;;7.65;4.70;;;;;8.20;99328.00;;;;5029165;28;20693;-78
2021/01/23 02:29:26;;;;;;;5.55;3.95;;;;;8.20;99328.00;;;;5030644;28;20197;-79
2021/01/23 02:31:59;;;;;;;6.72;4.45;;;;;8.30;99326.00;;;;5028839;28;20200;-78
2021/01/23 02:34:28;;;;;;;6.82;4.85;;;;;8.40;99326.00;;;;5029404;28;20251;-78
2021/01/23 02:36:57;;;;;;;6.43;4.53;;;;;8.40;99318.00;;;;5029831;28;20604;-78
2021/01/23 02:39:24;;;;;;;8.38;4.97;;;;;8.40;99329.00;;;;5030311;28;20200;-78
2021/01/23 02:41:53;;;;;;;6.85;4.68;;;;;8.40;99332.00;;;;5030052;28;20247;-78
2021/01/23 02:44:20;;;;;;;4.93;4.43;;;;;8.50;99335.00;;;;5030742;28;20666;-79
2021/01/23 02:46:48;;;;;;;8.32;4.88;;;;;8.50;99333.00;;;;5030652;28;20685;-79
2021/01/23 02:49:16;;;;;;;5.95;4.00;;;;;8.50;99332.00;;;;5029942;28;20619;-79
2021/01/23 02:51:49;;;;;;;7.15;4.18;;;;;8.60;99335.00;;;;5027870;28;20247;-79
2021/01/23 02:54:24;;;;;;;4.93;3.75;;;;;8.60;99328.00;;;;5030254;28;20208;-79
2021/01/23 02:56:53;;;;;;;5.88;3.97;;;;;8.60;99326.00;;;;5028059;28;20234;-79
2021/01/23 02:59:22;;;;;;;9.55;4.25;;;;;8.70;99323.00;;;;5030040;28;20208;-79
2021/01/23 03:01:51;;;;;;;4.78;3.80;;;;;8.70;99325.00;;;;5028881;28;20200;-78
2021/01/23 03:04:20;;;;;;;5.35;3.70;;;;;8.70;99333.00;;;;5030466;28;20204;-79
2021/01/23 03:06:47;;;;;;;5.30;3.90;;;;;8.70;99328.00;;;;5030221;28;20583;-79
2021/01/23 03:09:19;;;;;;;6.00;4.55;;;;;8.80;99323.00;;;;5029999;28;20200;-79
2021/01/23 03:11:46;;;;;;;7.20;4.55;;;;;8.80;99316.00;;;;5029537;28;20575;-78
2021/01/23 03:14:12;;;;;;;7.35;4.22;;;;;8.80;99310.00;;;;5029772;28;20247;-79
2021/01/23 03:16:45;;;;;;;6.40;3.70;;;;;8.90;99309.00;;;;5029601;28;20228;-79
2021/01/23 03:19:12;;;;;;;5.28;3.55;;;;;8.90;99313.00;;;;5028743;28;20730;-79
2021/01/23 03:21:39;;;;;;;6.07;4.22;;;;;8.90;99299.00;;;;5029697;28;20212;-79
2021/01/23 03:24:07;;;;;;;5.03;3.67;;;;;8.90;99296.00;;;;5030266;28;20204;-79
2021/01/23 03:26:34;;;;;;;5.30;3.40;;;;;8.90;99289.00;;;;5030052;28;20211;-79
2021/01/23 03:29:01;;;;;;;5.40;3.92;;;;;8.90;99289.00;;;;5029849;28;20227;-79
2021/01/23 03:31:28;;;;;;;10.07;4.72;;;;;8.90;99289.00;;;;5027820;28;20196;-79
2021/01/23 03:33:54;;;;;;;5.38;3.85;;;;;8.90;99288.00;;;;5025897;28;20239;-79
2021/01/23 03:36:21;;;;;;;7.22;4.30;;;;;8.90;99279.00;;;;5030835;28;20274;-79
2021/01/23 03:38:49;;;;;;;5.03;3.60;;;;;8.90;99277.00;;;;5028246;28;20227;-79
2021/01/23 03:41:15;;;;;;;5.30;3.78;;;;;8.90;99285.00;;;;5028518;28;20192;-79
2021/01/23 03:43:42;;;;;;;6.43;4.05;;;;;8.90;99285.00;;;;5030389;28;20192;-79
2021/01/23 03:46:09;;;;;;;7.32;4.32;;;;;8.90;99279.00;;;;5028729;28;20677;-79
2021/01/23 03:48:36;;;;;;;5.65;3.58;;;;;8.90;99274.00;;;;5029206;28;20593;-78
2021/01/23 03:51:03;;;;;;;5.70;4.47;;;;;8.90;99275.00;;;;5029610;28;20609;-79
2021/01/23 03:53:29;;;;;;;6.60;4.70;;;;;8.90;99272.00;;;;5028787;28;20207;-79
2021/01/23 03:55:57;;;;;;;5.88;3.60;;;;;8.90;99271.00;;;;5029628;28;20270;-79
2021/01/23 03:58:24;;;;;;;7.25;4.35;;;;;8.90;99269.00;;;;5027064;28;20315;-79
2021/01/23 04:00:50;;;;;;;5.88;3.88;;;;;8.90;99266.00;;;;5029979;28;20270;-79
2021/01/23 04:03:17;;;;;;;8.40;4.40;;;;;8.90;99268.00;;;;5028981;28;20209;-81
2021/01/23 04:05:44;;;;;;;5.32;3.50;;;;;8.90;99265.00;;;;5029427;28;20201;-80
2021/01/23 04:08:11;;;;;;;6.60;4.05;;;;;8.90;99261.00;;;;5028834;28;20204;-81
2021/01/23 04:10:38;;;;;;;7.95;4.63;;;;;9.00;99264.00;;;;5029903;28;20548;-81
2021/01/23 04:13:05;;;;;;;6.30;3.83;;;;;8.90;99264.00;;;;5029209;28;20232;-81
2021/01/23 04:15:32;;;;;;;8.65;4.00;;;;;9.00;99263.00;;;;5028248;28;20705;-80
2021/01/23 04:17:59;;;;;;;6.38;3.67;;;;;9.00;99257.00;;;;5028804;28;20258;-81
2021/01/23 04:20:26;;;;;;;5.03;3.38;;;;;9.00;99268.00;;;;5028851;28;20747;-80
2021/01/23 04:22:52;;;;;;;8.55;4.85;;;;;9.00;99259.00;;;;5029748;28;20270;-80
2021/01/23 04:25:19;;;;;;;6.15;3.85;;;;;9.00;99267.00;;;;5029646;28;20204;-81
2021/01/23 04:27:46;;;;;;;5.82;3.30;;;;;9.00;99264.00;;;;5027995;28;20223;-81
2021/01/23 04:30:15;;;;;;;5.47;3.70;;;;;9.00;99267.00;;;;5028567;28;20207;-80
2021/01/23 04:32:41;;;;;;;5.03;3.42;;;;;9.00;99273.00;;;;5027990;28;20200;-81
2021/01/23 04:35:10;;;;;;;5.50;3.78;;;;;9.00;99270.00;;;;5028539;28;20204;-80
2021/01/23 04:37:37;;;;;;;6.15;3.75;;;;;9.00;99275.00;;;;5029348;28;20200;-81
2021/01/23 04:40:05;;;;;;;7.40;3.67;;;;;9.00;99277.00;;;;5028457;28;20586;-81
2021/01/23 04:42:32;;;;;;;6.10;3.78;;;;;9.00;99267.00;;;;5028342;28;20196;-80
2021/01/23 04:44:59;;;;;;;5.78;4.18;;;;;9.00;99263.00;;;;5026778;28;20207;-80
2021/01/23 04:47:27;;;;;;;6.20;3.78;;;;;8.90;99263.00;;;;5029249;28;20213;-80
2021/01/23 04:49:54;;;;;;;5.45;3.53;;;;;8.90;99261.00;;;;5027953;28;20686;-81
2021/01/23 04:52:21;;;;;;;4.28;3.55;;;;;8.90;99265.00;;;;5028477;28;20207;-81
2021/01/23 04:54:47;;;;;;;4.93;3.28;;;;;8.90;99265.00;;;;5028883;28;20208;-81
2021/01/23 04:57:14;;;;;;;4.70;3.40;;;;;8.90;99254.00;;;;5027590;28;20227;-80
2021/01/23 04:59:41;;;;;;;7.03;4.00;;;;;8.90;99270.00;;;;5028194;28;20204;-80
2021/01/23 05:02:18;;;;;;;3.72;2.85;;;;;8.90;99266.00;;;;5027191;28;20204;-80
2021/01/23 05:04:48;;;;;;;6.35;3.80;;;;;8.90;99261.00;;;;5023673;28;20710;-81
2021/01/23 05:07:29;;;;;;;6.10;3.63;;;;;8.90;99261.00;;;;5026884;28;20580;-80
2021/01/23 05:09:56;;;;;;;6.20;3.67;;;;;8.90;99254.00;;;;5027765;28;20723;-81
2021/01/23 05:12:36;;;;;;;7.93;3.55;;;;;8.90;99263.00;;;;5028754;28;20196;-81
2021/01/23 05:15:05;;;;;;;5.78;3.80;;;;;8.90;99260.00;;;;5028040;28;20200;-81
2021/01/23 05:17:32;;;;;;;4.53;3.35;;;;;9.00;99256.00;;;;5028196;28;20192;-82
2021/01/23 05:19:59;;;;;;;3.90;3.30;;;;;9.00;99248.00;;;;5027650;28;20211;-82
2021/01/23 05:22:26;;;;;;;4.65;3.30;;;;;9.00;99251.00;;;;5028551;28;20290;-81
2021/01/23 05:24:53;;;;;;;4.97;3.28;;;;;9.10;99253.00;;;;5027215;28;20212;-81
2021/01/23 05:27:20;;;;;;;6.13;3.33;;;;;9.10;99249.00;;;;5027375;28;20196;-81
2021/01/23 05:29:58;;;;;;;4.32;3.10;;;;;9.10;99251.00;;;;5025849;28;20200;-81
2021/01/23 05:32:24;;;;;;;6.50;3.97;;;;;9.10;99244.00;;;;5027547;28;20693;-82
2021/01/23 05:34:51;;;;;;;5.10;3.28;;;;;9.10;99245.00;;;;5027822;28;20232;-81
2021/01/23 05:37:33;;;;;;;5.03;3.15;;;;;9.10;99239.00;;;;5026588;28;20322;-81
2021/01/23 05:40:00;;;;;;;4.03;2.97;;;;;9.10;99243.00;;;;5027508;28;20230;-81
2021/01/23 05:42:27;;;;;;;5.53;3.25;;;;;9.10;99241.00;;;;5027767;28;20274;-81
2021/01/23 05:45:14;;;;;;;4.45;3.25;;;;;9.10;99235.00;;;;5027465;28;20239;-80
2021/01/23 05:47:41;;;;;;;4.97;3.05;;;;;9.20;99253.00;;;;5027410;28;20207;-81
2021/01/23 05:50:09;;;;;;;7.07;3.58;;;;;9.20;99247.00;;;;5027186;28;20204;-81
2021/01/23 05:52:37;;;;;;;5.07;3.22;;;;;9.20;99250.00;;;;5027487;28;20200;-80
2021/01/23 05:55:05;;;;;;;5.07;3.22;;;;;9.20;99248.00;;;;5027974;28;20254;-81
2021/01/23 05:57:32;;;;;;;5.22;3.17;;;;;9.30;99239.00;;;;5026175;28;20212;-81
2021/01/23 06:00:00;;;;;;;5.78;3.40;;;;;9.30;99240.00;;;;5025258;28;20654;-81
2021/01/23 06:02:28;;;;;;;5.32;3.42;;;;;9.30;99231.00;;;;5027954;28;20661;-82
2021/01/23 06:04:55;;;;;;;8.15;3.65;;;;;9.30;99243.00;;;;5027398;28;20196;-81
2021/01/23 06:07:44;;;;;;;5.45;3.92;;;;;9.20;99240.00;;;;5027727;28;20200;-81
2021/01/23 06:10:33;;;;;;;4.45;2.80;;;;;9.20;99242.00;;;;5022753;28;20196;-81
2021/01/23 06:13:00;;;;;;;5.60;2.90;;;;;9.30;99239.00;;;;5028040;28;20227;-81
2021/01/23 06:15:38;;;;;;;4.00;2.95;;;;;9.20;99242.00;;;;5026960;28;20286;-81
2021/01/23 06:18:07;;;;;;;5.35;3.60;;;;;9.30;99234.00;;;;5020387;28;20204;-80
2021/01/23 06:20:54;;;;;;;6.65;3.13;;;;;9.20;99248.00;;;;5025762;28;20258;-81
2021/01/23 06:23:22;;;;;;;4.35;2.83;;;;;9.30;99245.00;;;;5027259;28;20262;-81
2021/01/23 06:26:02;;;;;;;3.53;2.67;;;;;9.20;99254.00;;;;5026052;28;20201;-81
2021/01/23 06:28:54;;;;;;;4.47;3.50;;;;;9.20;99248.00;;;;5025003;28;20204;-82
2021/01/23 06:31:29;;;;;;;4.95;2.83;;;;;9.20;99254.00;;;;5023242;28;20208;-82
2021/01/23 06:33:55;;;;;;;5.35;3.33;;;;;9.30;99254.00;;;;5023402;28;20247;-82
2021/01/23 06:36:23;;;;;;;4.60;3.25;;;;;9.30;99254.00;;;;5022719;28;20587;-81
2021/01/23 06:39:17;;;;;;;4.90;3.20;;;;;9.20;99252.00;;;;5026841;28;20215;-81
2021/01/23 06:41:44;;;;;;;5.35;3.35;;;;;9.30;99254.00;;;;4990270;28;20208;-81
2021/01/23 06:44:17;;;;;;;5.50;3.03;;;;;9.30;99251.00;;;;5028577;28;20204;-81
2021/01/23 06:46:56;;;;;;;5.93;3.70;;;;;9.30;99252.00;;;;5023751;28;20728;-82
2021/01/23 06:49:23;;;;;;;4.28;2.80;;;;;9.30;99249.00;;;;5015588;28;20597;-81
2021/01/23 06:51:49;;;;;;;5.00;2.95;;;;;9.30;99260.00;;;;5019939;28;20204;-81
2021/01/23 06:54:19;;;;;;;4.07;2.70;;;;;9.30;99258.00;;;;5029514;28;20270;-82
2021/01/23 06:56:47;;;;;;;4.10;2.75;;;;;9.30;99259.00;;;;5029394;28;20235;-81
2021/01/23 06:59:25;;;;;;;3.38;2.72;;;;;9.30;99262.00;;;;5028123;28;20247;-81
2021/01/23 07:01:59;;;;;;;5.32;3.00;;;;;9.30;99265.00;;;;5028932;28;20199;-81
2021/01/23 07:04:27;;;;;;;5.13;3.28;;;;;9.40;99270.00;;;;5029985;28;20253;-82
2021/01/23 07:06:55;;;;;;;5.75;3.20;;;;;9.40;99266.00;;;;5028373;28;20215;-82
2021/01/23 07:09:45;;;;;;;5.13;2.92;;;;;9.30;99271.00;;;;5030740;28;20201;-82
2021/01/23 07:12:12;;;;;;;3.38;2.85;;;;;9.40;99278.00;;;;5028531;28;20193;-81
2021/01/23 07:14:39;;;;;;;6.07;2.97;;;;;9.50;99278.00;;;;5026781;28;20619;-82
2021/01/23 07:17:13;;;;;;;5.20;2.67;;;;;9.40;99272.00;;;;5029393;28;20274;-82
2021/01/23 07:19:41;;;;;;;4.15;2.97;;;;;9.50;99257.00;;;;5028767;28;20196;-82
2021/01/23 07:22:07;;;;;;;4.47;3.33;;;;;9.50;99280.00;;;;5027801;28;20200;-82
2021/01/23 07:24:36;;;;;;;4.13;3.30;;;;;9.50;99281.00;;;;5028592;28;20204;-82
2021/01/23 07:27:04;;;;;;;5.53;3.40;;;;;9.60;99276.00;;;;5028840;28;20888;-83
2021/01/23 07:29:31;;;;;;;4.28;3.35;;;;;9.60;99271.00;;;;5028958;28;20193;-83
2021/01/23 07:31:58;;;;;;;5.43;2.85;;;;;9.60;99270.00;;;;5027430;28;20212;-83
2021/01/23 07:34:25;;;;;;;3.90;2.72;;;;;9.70;99279.00;;;;5028830;28;20228;-81
2021/01/23 07:36:52;;;;;;;3.63;2.53;;;;;9.70;99280.00;;;;5029729;28;20683;-82
2021/01/23 07:39:20;;;;;;;3.63;2.83;;;;;9.70;99285.00;;;;5028940;28;20258;-84
2021/01/23 07:41:49;;;;;;;4.65;3.05;;;;;9.70;99286.00;;;;5028185;28;20207;-84
2021/01/23 07:44:17;;;;;;;5.10;3.03;;;;;9.80;99288.00;;;;5027822;28;20601;-83
2021/01/23 07:46:45;;;;;;;3.63;2.65;;;;;9.80;99295.00;;;;5030228;28;20204;-82
2021/01/23 07:49:21;;;;;;;5.55;2.97;;;;;9.80;99298.00;;;;5028034;28;20216;-82
2021/01/23 07:51:48;;;;;;;3.42;2.78;;;;;9.90;99287.00;;;;5027957;28;20287;-82
2021/01/23 07:54:15;;;;;;;4.70;3.38;;;;;9.90;99304.00;;;;5029136;28;20212;-81
2021/01/23 07:56:57;;;;;;;4.07;2.70;;;;;9.80;99292.00;;;;5028044;28;20224;-81
2021/01/23 07:59:42;;;;;;;4.20;2.45;;;;;9.80;99292.00;;;;5028368;28;20204;-81
2021/01/23 08:02:10;;;;;;;4.53;2.97;;;;;10.00;99289.00;;;;5028737;28;20670;-81
2021/01/23 08:04:37;;;;;;;5.78;2.78;;;;;10.00;99290.00;;;;5029249;28;20219;-81
2021/01/23 08:07:21;;;;;;;3.30;2.58;;;;;9.90;99295.00;;;;5028579;28;20669;-81
2021/01/23 08:10:03;;;;;;;4.03;3.03;;;;;10.00;99295.00;;;;5028301;28;20212;-81
2021/01/23 08:12:31;;;;;;;4.00;2.50;;;;;10.00;99300.00;;;;5028076;28;20196;-81
2021/01/23 08:14:58;;;;;;;4.60;2.63;;;;;10.10;99307.00;;;;5027461;28;20367;-81
2021/01/23 08:17:37;;;;;;;6.15;2.72;;;;;10.00;99304.00;;;;5027278;28;20224;-81
2021/01/23 08:20:05;;;;;;;5.57;3.10;;;;;10.10;99300.00;;;;5029286;28;20199;-81
2021/01/23 08:22:32;;;;;;;4.45;3.08;;;;;10.10;99299.00;;;;5028724;28;20964;-81
2021/01/23 08:24:59;;;;;;;5.80;2.90;;;;;10.10;99312.00;;;;5027914;28;20201;-80
2021/01/23 08:27:28;;;;;;;4.03;2.88;;;;;10.10;99317.00;;;;5025595;28;20270;-81
2021/01/23 08:29:55;;;;;;;5.75;3.38;;;;;10.20;99306.00;;;;5019026;28;20679;-81
2021/01/23 08:32:22;;;;;;;3.53;2.90;;;;;10.20;99311.00;;;;5015518;28;20193;-80
2021/01/23 08:34:49;;;;;;;4.35;2.90;;;;;10.20;99316.00;;;;5028143;28;20749;-80
2021/01/23 08:37:15;;;;;;;3.85;2.97;;;;;10.30;99308.00;;;;5028416;28;20278;-81
2021/01/23 08:39:48;;;;;;;7.43;3.30;;;;;10.30;99314.00;;;;5028435;28;20197;-81
2021/01/23 08:42:15;;;;;;;4.82;3.25;;;;;10.30;99309.00;;;;5026470;28;20212;-81
2021/01/23 08:44:42;;;;;;;6.47;3.22;;;;;10.40;99313.00;;;;5035488;28;20208;-81
2021/01/23 08:47:09;;;;;;;4.15;3.10;;;;;10.50;99320.00;;;;5027519;28;20204;-79
2021/01/23 08:49:36;;;;;;;4.25;3.08;;;;;10.50;99313.00;;;;5028021;28;20674;-79
2021/01/23 08:52:03;;;;;;;5.50;3.10;;;;;10.60;99313.00;;;;5028967;28;20200;-79
2021/01/23 08:54:30;;;;;;;4.53;2.85;;;;;10.60;99315.00;;;;5028159;28;20199;-79
2021/01/23 08:56:56;;;;;;;5.00;3.20;;;;;10.60;99316.00;;;;5027056;28;20228;-79
2021/01/23 08:59:23;;;;;;;3.95;3.22;;;;;10.70;99305.00;;;;5027856;28;20670;-79
2021/01/23 09:01:50;;;;;;;6.20;3.08;;;;;10.70;99319.00;;;;5025960;28;20212;-78
2021/01/23 09:04:17;;;;;;;6.20;3.63;;;;;10.70;99311.00;;;;5020381;28;20710;-79
2021/01/23 09:06:44;;;;;;;5.88;2.83;;;;;10.70;99315.00;;;;5028252;28;20274;-78
2021/01/23 09:09:13;;;;;;;5.55;3.03;;;;;10.70;99313.00;;;;5027139;28;20325;-79
2021/01/23 09:11:39;;;;;;;6.75;3.15;;;;;10.80;99309.00;;;;5028608;28;20204;-80
2021/01/23 09:14:06;;;;;;;5.57;3.85;;;;;10.80;99313.00;;;;5028016;28;20221;-79
2021/01/23 09:16:34;;;;;;;4.45;3.25;;;;;10.80;99310.00;;;;5008051;28;20229;-80
2021/01/23 09:19:01;;;;;;;4.25;3.35;;;;;10.80;99300.00;;;;5006761;28;20204;-80
2021/01/23 09:21:29;;;;;;;4.53;3.08;;;;;10.70;99294.00;;;;5014800;28;20211;-80
2021/01/23 09:23:55;;;;;;;3.63;2.60;;;;;10.80;99307.00;;;;5025811;28;20201;-81
2021/01/23 09:26:23;;;;;;;4.57;3.13;;;;;10.80;99294.00;;;;5025470;28;20200;-81
2021/01/23 09:28:50;;;;;;;4.75;3.33;;;;;10.80;99306.00;;;;5026571;28;20228;-81
2021/01/23 09:31:16;;;;;;;5.00;3.20;;;;;10.80;99304.00;;;;5025073;28;20200;-79
2021/01/23 09:33:44;;;;;;;4.63;3.17;;;;;10.90;99289.00;;;;5026261;28;20243;-78
2021/01/23 09:36:11;;;;;;;4.72;3.22;;;;;10.90;99296.00;;;;5008153;28;20275;-80
2021/01/23 09:38:38;;;;;;;4.00;2.78;;;;;10.90;99299.00;;;;5008099;28;20197;-80
2021/01/23 09:41:05;;;;;;;4.47;3.00;;;;;10.90;99295.00;;;;5019965;28;20204;-80
2021/01/23 09:43:33;;;;;;;4.97;3.00;;;;;10.90;99289.00;;;;5027300;28;20517;-80
2021/01/23 09:46:00;;;;;;;5.88;3.10;;;;;10.90;99299.00;;;;5025857;28;20525;-79
2021/01/23 09:48:26;;;;;;;6.55;3.25;;;;;10.90;99299.00;;;;5026424;28;20193;-79
2021/01/23 09:50:53;;;;;;;3.50;2.83;;;;;10.90;99306.00;;;;5027260;28;20589;-79
2021/01/23 09:53:20;;;;;;;5.32;3.15;;;;;10.90;99310.00;;;;5027408;28;20200;-78
2021/01/23 09:55:48;;;;;;;8.07;3.35;;;;;10.90;99305.00;;;;5026455;28;20200;-79
2021/01/23 09:58:14;;;;;;;4.32;2.85;;;;;10.90;99311.00;;;;5025591;28;20490;-79
2021/01/23 10:00:41;;;;;;;8.70;3.35;;;;;11.00;99306.00;;;;5023173;28;20585;-80
2021/01/23 10:03:08;;;;;;;5.05;3.45;;;;;11.00;99310.00;;;;5026195;28;20204;-78
2021/01/23 10:05:35;;;;;;;6.57;3.63;;;;;11.00;99307.00;;;;5027566;28;21224;-78
2021/01/23 10:08:01;;;;;;;4.20;2.95;;;;;11.10;99307.00;;;;5026748;28;20201;-78
2021/01/23 10:10:28;;;;;;;4.68;3.10;;;;;11.10;99299.00;;;;5027667;28;20760;-80
2021/01/23 10:12:56;;;;;;;3.88;2.70;;;;;11.20;99304.00;;;;5029395;28;20203;-82
2021/01/23 10:15:23;;;;;;;4.30;3.67;;;;;11.20;99313.00;;;;5030909;28;20192;-82
2021/01/23 10:17:49;;;;;;;4.18;3.05;;;;;11.30;99307.00;;;;5031690;28;20274;-82
2021/01/23 10:20:16;;;;;;;4.13;3.72;;;;;11.30;99310.00;;;;5031034;28;20226;-82
2021/01/23 10:22:43;;;;;;;8.30;3.55;;;;;11.40;99304.00;;;;5031491;28;20200;-82
2021/01/23 10:25:10;;;;;;;3.67;3.28;;;;;11.40;99315.00;;;;5031681;28;20659;-80
2021/01/23 10:27:37;;;;;;;7.30;3.45;;;;;11.50;99313.00;;;;5031097;28;20675;-81
2021/01/23 10:30:07;;;;;;;5.70;2.85;;;;;11.50;99308.00;;;;5030287;28;20319;-81
2021/01/23 10:32:33;;;;;;;4.57;3.25;;;;;11.60;99306.00;;;;5030631;28;20200;-81
2021/01/23 10:35:00;;;;;;;5.57;3.03;;;;;11.60;99306.00;;;;5029421;28;20231;-80
2021/01/23 10:37:27;;;;;;;4.00;2.97;;;;;11.70;99317.00;;;;5030878;28;20641;-81
2021/01/23 10:39:54;;;;;;;3.25;2.67;;;;;11.70;99310.00;;;;5031315;28;20211;-80
2021/01/23 10:42:20;;;;;;;4.20;2.85;;;;;11.80;99307.00;;;;5031038;28;20555;-80
2021/01/23 10:44:47;;;;;;;5.43;2.85;;;;;11.80;99306.00;;;;5029141;28;20200;-80
2021/01/23 10:47:15;;;;;;;8.45;3.15;;;;;11.80;99316.00;;;;5030549;28;20196;-80
2021/01/23 10:49:42;;;;;;;3.47;2.85;;;;;11.80;99308.00;;;;5029895;28;20196;-81
2021/01/23 10:52:09;;;;;;;4.75;2.80;;;;;11.80;99305.00;;;;5030904;28;20200;-81
2021/01/23 10:54:36;;;;;;;5.13;2.55;;;;;11.80;99312.00;;;;5031333;28;20200;-80
2021/01/23 10:57:05;;;;;;;5.03;3.05;;;;;11.80;99312.00;;;;5031224;28;20666;-80
2021/01/23 10:59:31;;;;;;;4.38;2.70;;;;;11.80;99307.00;;;;5031416;28;20200;-82
2021/01/23 11:01:58;;;;;;;3.10;2.80;;;;;11.80;99314.00;;;;5029362;28;20553;-81
2021/01/23 11:04:26;;;;;;;4.40;2.40;;;;;11.80;99306.00;;;;5030222;28;20262;-82
2021/01/23 11:06:53;;;;;;;5.50;3.15;;;;;11.80;99305.00;;;;5030917;28;20208;-81
2021/01/23 11:09:20;;;;;;;4.57;3.00;;;;;11.80;99304.00;;;;5031537;28;20201;-82
2021/01/23 11:11:46;;;;;;;3.25;1.92;;;;;11.80;99309.00;;;;5030843;28;20655;-81
2021/01/23 11:14:13;;;;;;;4.72;2.22;;;;;11.80;99310.00;;;;5029837;28;20266;-80
2021/01/23 11:16:40;;;;;;;3.33;2.45;;;;;11.80;99304.00;;;;5030892;28;20282;-80
2021/01/23 11:19:07;;;;;;;4.85;2.67;;;;;11.80;99309.00;;;;5030743;28;20720;-80
2021/01/23 11:21:35;;;;;;;3.25;2.10;;;;;11.90;99313.00;;;;5029420;28;20203;-80
2021/01/23 11:24:01;;;;;;;3.05;2.33;;;;;11.90;99307.00;;;;5028848;28;20670;-80
2021/01/23 11:26:28;;;;;;;3.78;2.40;;;;;11.90;99309.00;;;;5030205;28;20208;-79
2021/01/23 11:28:55;;;;;;;3.08;2.55;;;;;11.90;99299.00;;;;5029567;28;20200;-80
2021/01/23 11:31:23;;;;;;;3.30;2.42;;;;;11.90;99299.00;;;;5029855;28;20214;-79
2021/01/23 11:33:50;;;;;;;3.75;2.38;;;;;11.90;99310.00;;;;5026486;28;20220;-79
2021/01/23 11:36:16;;;;;;;4.10;2.53;;;;;11.90;99309.00;;;;5029140;28;20212;-79
2021/01/23 11:38:44;;;;;;;8.10;2.53;;;;;11.90;99305.00;;;;5030143;28;20204;-79
2021/01/23 11:41:11;;;;;;;3.83;2.35;;;;;12.00;99305.00;;;;5029300;28;20204;-81
2021/01/23 11:43:37;;;;;;;3.70;2.58;;;;;12.00;99312.00;;;;5029476;28;20192;-78
2021/01/23 11:46:04;;;;;;;4.18;2.58;;;;;12.10;99305.00;;;;5029534;28;20208;-80
2021/01/23 11:48:31;;;;;;;5.30;2.70;;;;;12.10;99311.00;;;;5029333;28;20204;-79
2021/01/23 11:50:59;;;;;;;3.47;2.38;;;;;12.10;99295.00;;;;5028812;28;20737;-79
2021/01/23 11:53:26;;;;;;;2.58;2.15;;;;;12.20;99300.00;;;;5029328;28;20666;-79
2021/01/23 11:55:53;;;;;;;3.10;2.60;;;;;12.20;99307.00;;;;5028757;28;20197;-80
2021/01/23 11:58:20;;;;;;;3.97;2.45;;;;;12.20;99289.00;;;;5029346;28;20555;-80
2021/01/23 12:00:47;;;;;;;4.78;2.97;;;;;12.30;99288.00;;;;5030158;28;20201;-80
2021/01/23 12:03:13;;;;;;;3.08;2.78;;;;;12.30;99281.00;;;;5029800;28;20207;-80
2021/01/23 12:05:40;;;;;;;2.92;2.63;;;;;12.30;99281.00;;;;5029497;28;20193;-80
2021/01/23 12:08:07;;;;;;;3.42;2.90;;;;;12.40;99282.00;;;;5029364;28;20188;-79
2021/01/23 12:10:34;;;;;;;3.00;2.78;;;;;12.40;99284.00;;;;5028456;28;20204;-79
2021/01/23 12:13:01;;;;;;;3.28;2.97;;;;;12.50;99276.00;;;;5028888;28;20192;-79
2021/01/23 12:15:28;;;;;;;2.88;2.60;;;;;12.50;99273.00;;;;5029750;28;20196;-81
2021/01/23 12:17:55;;;;;;;4.43;3.38;;;;;12.60;99277.00;;;;5028128;28;20228;-80
2021/01/23 12:20:22;;;;;;;3.92;3.08;;;;;12.60;99268.00;;;;5029934;28;20666;-81
2021/01/23 12:22:49;;;;;;;4.28;2.80;;;;;12.60;99268.00;;;;5029588;28;20223;-81
2021/01/23 12:25:16;;;;;;;3.90;3.15;;;;;12.60;99264.00;;;;5029306;28;20212;-79
2021/01/23 12:27:43;;;;;;;4.32;3.28;;;;;12.60;99261.00;;;;5029718;28;20196;-80
2021/01/23 12:30:14;;;;;;;4.28;3.25;;;;;12.60;99255.00;;;;5028631;28;20197;-79